• Join FlightAware (Why Join?)
  • Login
  • US Flag 
12:58PM EDT


 

Airport Tracker/Info


-or-


 

Live Flight TrackerFlight Track Log ✈ N94JB ✈ 20-Feb-2012 ✈ KWJF - KBJC

Flight Track Log - Related Links

Times and Time Zones

All times are in EST time to prevent confusion due to time zone crossing. See the N94JB flight status page for this flight to view local times or setup timezone preferences in your user account.

Time Position Orientation Groundspeed Altitude Reporting Facility
EST Latitude Longitude Course Direction KTS MPH feet Rate Location/Type
03:48PM 34.7665 -118.1646 93° East  Level FlightAware Approximate
03:56PM 34.8058 -117.6822 129° Southeast  Level FlightAware Approximate
04:02PM 34.7383 -117.5797 73° East 150 173 11,700  Level Los Angeles Center
04:03PM 34.7494 -117.5344 80° East 144 166 12,300 600 Climbing Los Angeles Center
04:04PM 34.7561 -117.4864 75° East 144 166 12,900 300 Climbing Los Angeles Center
04:05PM 34.7672 -117.4361 73° East 144 166 13,000  Climbing Los Angeles Center
04:06PM 34.7803 -117.3833 73° East 149 171 13,000  Level Los Angeles Center
04:07PM 34.7933 -117.3303 72° East 149 171 13,000 180 Level Los Angeles Center
04:08PM 34.8064 -117.2825 71° East 149 171 13,400 360 Climbing Los Angeles Center
04:09PM 34.8214 -117.2294 72° East 149 171 13,800 480 Climbing Los Angeles Center
04:10PM 34.8344 -117.1817 72° East 149 171 14,400 600 Climbing Los Angeles Center
04:11PM 34.8472 -117.1336 76° East 149 171 15,000 240 Climbing Los Angeles Center
04:12PM 34.8581 -117.0806 77° East 149 171 15,000  Level Los Angeles Center
04:13PM 34.8692 -117.0225 75° East 160 184 15,000  Level Los Angeles Center
04:14PM 34.8819 -116.9644 77° East 167 192 15,000  Level Los Angeles Center
04:15PM 34.8928 -116.9089 78° East 167 192 15,000  Level Los Angeles Center
04:16PM 34.9014 -116.8583 77° East 167 192 15,000  Level Los Angeles Center
04:17PM 34.9122 -116.8000 75° East 167 192 15,000  Level Los Angeles Center
04:18PM 34.9250 -116.7419 74° East 162 186 15,000  Level Los Angeles Center
04:19PM 34.9378 -116.6889 75° East 162 186 15,000  Level Los Angeles Center
04:20PM 34.9506 -116.6306 76° East 162 186 15,100  Climbing Los Angeles Center
04:21PM 34.9633 -116.5697 63° Northeast 162 186 15,000 -60 Descending Los Angeles Center
04:22PM 34.9844 -116.5194 31° Northeast 167 192 15,000  Level Los Angeles Center
04:23PM 35.0283 -116.4867 25° Northeast 157 181 15,100  Climbing Los Angeles Center
04:24PM 35.0681 -116.4639 52° Northeast 151 174 15,100  Level Los Angeles Center
04:25PM 35.0975 -116.4183 59° Northeast 157 181 15,100  Level Los Angeles Center
04:26PM 35.1225 -116.3675 51° Northeast 162 186 15,100  Level Los Angeles Center
04:27PM 35.1539 -116.3194 56° Northeast 168 193 15,100  Level Los Angeles Center
04:28PM 35.1792 -116.2739 45° Northeast 168 193 15,100 -60 Level Los Angeles Center
04:29PM 35.2147 -116.2306 45° Northeast 174 200 15,000  Descending Los Angeles Center
04:30PM 35.2439 -116.1950 41° Northeast 174 200 15,100  Climbing Los Angeles Center
04:31PM 35.2794 -116.1569 49° Northeast 164 189 15,100  Level Los Angeles Center
04:32PM 35.3106 -116.1136 59° Northeast 164 189 15,100  Level Los Angeles Center
04:33PM 35.3356 -116.0628 75° East 169 194 15,100  Level Los Angeles Center
04:34PM 35.3481 -116.0042 66° East 169 194 15,100  Level Los Angeles Center
04:35PM 35.3689 -115.9481 68° East 169 194 15,100  Level Los Angeles Center
04:36PM 35.3875 -115.8919 69° East 169 194 15,100  Level Los Angeles Center
04:37PM 35.4064 -115.8308 69° East 169 194 15,100  Level Los Angeles Center
04:38PM 35.4250 -115.7719 72° East 174 200 15,100  Level Los Angeles Center
04:38PM 35.4311 -115.7492 45° Northeast 178 205 15,100 -120 Level Los Angeles Center
04:39PM 35.4519 -115.7236 360° North 174 200 15,000 -180 Descending Los Angeles Center
04:39PM 35.4539 -115.7236 38° Northeast 174 200 15,000 60 Level Los Angeles Center
04:40PM 35.4936 -115.6850 41° Northeast 173 199 15,100  Climbing Los Angeles Center
04:41PM 35.5289 -115.6467 North 173 199 15,100  Level Los Angeles Center
04:41PM 35.5308 -115.6464 38° Northeast 177 204 15,100 -120 Level Los Angeles Center
04:42PM 35.5683 -115.6106 90° East 175 201 15,000 -120 Descending Los Angeles Center
04:42PM 35.5683 -115.6081 28° Northeast 173 199 15,000 60 Level Los Angeles Center
04:43PM 35.6078 -115.5822 42° Northeast 171 197 15,100 60 Climbing Los Angeles Center
04:43PM 35.6100 -115.5797 33° Northeast 173 199 15,100 -120 Level Los Angeles Center
04:44PM 35.6514 -115.5461 270° West 168 193 15,000 -120 Descending Los Angeles Center
04:44PM 35.6514 -115.5514 40° Northeast 172 198 15,000 60 Level Los Angeles Center
04:45PM 35.6889 -115.5128 36° Northeast 175 201 15,100  Climbing Los Angeles Center
04:46PM 35.7264 -115.4792 35° Northeast 174 200 15,100 -60 Level Los Angeles Center
04:47PM 35.7678 -115.4431 37° Northeast 174 200 15,000 -60 Descending Los Angeles Center
04:48PM 35.8094 -115.4042 34° Northeast 172 198 15,000  Level Los Angeles Center
04:49PM 35.8467 -115.3731 36° Northeast 173 199 15,000  Level Los Angeles Center
04:50PM 35.8839 -115.3394 35° Northeast 173 199 15,100  Climbing Los Angeles Center
04:51PM 35.9233 -115.3058 35° Northeast 172 198 15,000 -60 Descending Los Angeles Center
04:52PM 35.9711 -115.2642 35° Northeast 171 197 15,000  Level Los Angeles Center
04:53PM 36.0044 -115.2356 38° Northeast 171 197 15,000  Level Los Angeles Center
04:54PM 36.0500 -115.1914 33° Northeast 169 194 15,000  Level Los Angeles Center
04:55PM 36.0789 -115.1681 43° Northeast 170 196 15,100  Climbing Los Angeles Center
04:56PM 36.1264 -115.1133 47° Northeast 169 194 15,000  Descending Los Angeles Center
05:00PM 36.2294 -114.9783 45° Northeast 171 197 15,100  Climbing Los Angeles Center
05:01PM 36.2625 -114.9367 55° Northeast 165 190 15,000  Descending Los Angeles Center
05:02PM 36.2892 -114.8897 45° Northeast 160 184 15,100  Climbing Los Angeles Center
05:03PM 36.3222 -114.8481 44° Northeast 160 184 15,100  Level Los Angeles Center
05:04PM 36.3572 -114.8061 40° Northeast 165 190 15,100  Level Los Angeles Center
05:05PM 36.3922 -114.7697 46° Northeast 165 190 15,100  Level Los Angeles Center
05:06PM 36.4250 -114.7278 52° Northeast 165 190 15,100  Level Los Angeles Center
05:07PM 36.4558 -114.6781 46° Northeast 171 197 15,100  Level Los Angeles Center
05:08PM 36.4886 -114.6361 38° Northeast 171 197 15,100  Level Los Angeles Center
05:09PM 36.5258 -114.5994 48° Northeast 171 197 15,100  Level Los Angeles Center
05:10PM 36.5586 -114.5547 49° Northeast 166 191 15,100  Level Los Angeles Center
05:11PM 36.5894 -114.5103 48° Northeast 166 191 15,100  Level Los Angeles Center
05:12PM 36.6222 -114.4656 44° Northeast 166 191 15,100  Level Los Angeles Center
05:13PM 36.6550 -114.4261 44° Northeast 166 191 15,100  Level Los Angeles Center
05:14PM 36.6878 -114.3864 46° Northeast 166 191 15,100  Level Los Angeles Center
05:15PM 36.7206 -114.3444 51° Northeast 166 191 15,100  Level Los Angeles Center
05:16PM 36.7492 -114.2997 44° Northeast 166 191 15,100  Level Los Angeles Center
05:17PM 36.7839 -114.2575 60° Northeast 166 191 15,100 -60 Level Los Angeles Center
05:18PM 36.8081 -114.2050 69° East 166 191 15,000 -60 Descending Los Angeles Center
05:19PM 36.8258 -114.1475 57° Northeast 166 191 15,000  Level Los Angeles Center
05:20PM 36.8522 -114.0975 50° Northeast 166 191 15,000  Level Los Angeles Center
05:21PM 36.8828 -114.0525 60° Northeast 166 191 15,000  Level Los Angeles Center
05:22PM 36.9069 -114.0000 66° East 171 197 15,000  Level Los Angeles Center
05:23PM 36.9267 -113.9450 59° Northeast 171 197 15,000  Level Los Angeles Center
05:24PM 36.9508 -113.8950 53° Northeast 171 197 15,000  Level Los Angeles Center
05:25PM 36.9792 -113.8472 56° Northeast 171 197 15,000  Level Los Angeles Center
05:26PM 37.0075 -113.7944 64° Northeast 171 197 15,000  Level Los Angeles Center
05:27PM 37.0292 -113.7392 61° Northeast 171 197 15,000  Level Los Angeles Center
05:28PM 37.0533 -113.6839 58° Northeast 166 191 15,000  Level Los Angeles Center
05:29PM 37.0792 -113.6311 55° Northeast 166 191 15,000  Level Los Angeles Center
05:30PM 37.1075 -113.5808 62° Northeast 166 191 15,000  Level Los Angeles Center
05:31PM 37.1314 -113.5253 62° Northeast 166 191 15,000  Level Los Angeles Center
05:32PM 37.1531 -113.4750 58° Northeast 166 191 15,000  Level Los Angeles Center
05:33PM 37.1792 -113.4219 59° Northeast 166 191 15,000  Level Los Angeles Center
05:34PM 37.2050 -113.3689 66° East 166 191 15,000  Level Los Angeles Center
05:34PM 37.2131 -113.3467 60° Northeast 182 209 15,000  Level Salt Lake Center
05:35PM 37.2389 -113.2911 60° Northeast 182 209 15,000  Level Salt Lake Center
05:36PM 37.2642 -113.2353 60° Northeast 182 209 15,000  Level Salt Lake Center
05:37PM 37.2953 -113.1681 60° Northeast 183 211 15,000  Level Salt Lake Center
05:38PM 37.3217 -113.1117 60° Northeast 184 212 15,000  Level Salt Lake Center
05:39PM 37.3481 -113.0539 60° Northeast 186 214 15,000  Level Salt Lake Center
05:40PM 37.3744 -112.9969 60° Northeast 187 215 15,000  Level Salt Lake Center
05:41PM 37.4008 -112.9403 60° Northeast 186 214 15,000  Level Salt Lake Center
05:42PM 37.4275 -112.8828 60° Northeast 187 215 15,000  Level Salt Lake Center
05:43PM 37.4536 -112.8250 60° Northeast 189 217 15,000  Level Salt Lake Center
05:44PM 37.4850 -112.7561 60° Northeast 188 216 15,000  Level Salt Lake Center
05:45PM 37.5108 -112.6994 60° Northeast 187 215 15,000  Level Salt Lake Center
05:46PM 37.5367 -112.6422 60° Northeast 186 214 15,000  Level Salt Lake Center
05:47PM 37.5628 -112.5856 60° Northeast 186 214 15,000  Level Salt Lake Center
05:48PM 37.5889 -112.5275 60° Northeast 187 215 15,000  Level Salt Lake Center
05:50PM 37.6153 -112.4692 61° Northeast 188 216 15,000  Level Salt Lake Center
05:51PM 37.6414 -112.4103 60° Northeast 188 216 15,000  Level Salt Lake Center
05:52PM 37.6739 -112.3400 59° Northeast 191 220 15,000  Level Salt Lake Center
05:53PM 37.7014 -112.2822 61° Northeast 190 219 15,000  Level Salt Lake Center
05:54PM 37.7272 -112.2228 60° Northeast 190 219 15,000  Level Salt Lake Center
05:55PM 37.7539 -112.1636 59° Northeast 191 220 15,000  Level Salt Lake Center
05:56PM 37.7811 -112.1069 59° Northeast 189 217 15,000  Level Salt Lake Center
05:57PM 37.8089 -112.0478 61° Northeast 190 219 15,000  Level Salt Lake Center
05:58PM 37.8347 -111.9886 59° Northeast 190 219 15,000  Level Salt Lake Center
05:59PM 37.8608 -111.9333 59° Northeast 186 214 15,000  Level Salt Lake Center
06:00PM 37.8878 -111.8775 62° Northeast 184 212 15,000  Level Salt Lake Center
06:01PM 37.9181 -111.8064 61° Northeast 186 214 15,000  Level Salt Lake Center
06:02PM 37.9431 -111.7481 58° Northeast 186 214 15,000  Level Salt Lake Center
06:03PM 37.9703 -111.6925 59° Northeast 185 213 15,000  Level Salt Lake Center
06:04PM 37.9986 -111.6317 62° Northeast 189 217 15,000  Level Salt Lake Center
06:05PM 38.0247 -111.5703 61° Northeast 193 222 15,000  Level Salt Lake Center
06:06PM 38.0514 -111.5103 61° Northeast 193 222 15,000  Level Salt Lake Center
06:07PM 38.0778 -111.4508 59° Northeast 192 221 15,000  Level Salt Lake Center
06:08PM 38.1047 -111.3944 57° Northeast 190 219 15,000  Level Salt Lake Center
06:09PM 38.1306 -111.3433 58° Northeast 180 207 15,000  Level Salt Lake Center
06:10PM 38.1578 -111.2883 65° Northeast 178 205 15,000  Level Salt Lake Center
06:11PM 38.1817 -111.2242 62° Northeast 187 215 15,000  Level Salt Lake Center
06:12PM 38.2078 -111.1614 59° Northeast 194 223 15,000  Level Salt Lake Center
06:13PM 38.2425 -111.0886 59° Northeast 196 226 15,000  Level Salt Lake Center
06:14PM 38.2708 -111.0281 61° Northeast 196 226 15,000  Level Salt Lake Center
06:15PM 38.2975 -110.9669 59° Northeast 196 226 15,000  Level Salt Lake Center
06:16PM 38.3272 -110.9033 59° Northeast 194 223 15,000  Level Salt Lake Center
06:18PM 38.3528 -110.8486 59° Northeast 190 219 15,000  Level Salt Lake Center
06:19PM 38.3831 -110.7850 62° Northeast 189 217 15,000  Level Salt Lake Center
06:20PM 38.4067 -110.7292 61° Northeast 188 216 15,000  Level Salt Lake Center
06:21PM 38.4319 -110.6703 68° East 192 221 15,000  Level Salt Lake Center
06:22PM 38.4544 -110.6008 69° East 191 220 15,000  Level Salt Lake Center
06:23PM 38.4733 -110.5394 67° East 191 220 15,000  Level Salt Lake Center
06:24PM 38.4969 -110.4697 65° Northeast 191 220 15,000  Level Salt Lake Center
06:25PM 38.5189 -110.4092 66° East 194 223 15,000  Level Salt Lake Center
06:26PM 38.5436 -110.3394 68° East 195 224 15,000  Level Salt Lake Center
06:27PM 38.5631 -110.2789 67° East 193 222 15,000  Level Salt Lake Center
06:28PM 38.5869 -110.2083 65° Northeast 193 222 15,000  Level Salt Lake Center
06:29PM 38.6086 -110.1500 66° East 192 221 15,000  Level Salt Lake Center
06:30PM 38.6328 -110.0800 67° East 192 221 15,000  Level Salt Lake Center
06:31PM 38.6528 -110.0183 66° East 194 223 15,000  Level Salt Lake Center
06:32PM 38.6767 -109.9481 67° East 194 223 15,000  Level Salt Lake Center
06:33PM 38.6967 -109.8875 67° East 194 223 15,100  Climbing Salt Lake Center
06:34PM 38.7200 -109.8169 66° East 193 222 15,100  Level Salt Lake Center
06:35PM 38.7408 -109.7558 66° East 194 223 15,100  Level Salt Lake Center
06:36PM 38.7653 -109.6844 67° East 195 224 15,100  Level Salt Lake Center
06:37PM 38.7847 -109.6244 66° East 194 223 15,100  Level Salt Lake Center
06:38PM 38.8083 -109.5553 67° East 192 221 15,100  Level Salt Lake Center
06:39PM 38.8278 -109.4961 67° East 190 219 15,100  Level Salt Lake Center
06:40PM 38.8508 -109.4272 65° Northeast 189 217 15,100  Level Salt Lake Center
06:42PM 38.8753 -109.3589 69° East 187 215 15,100  Level Denver Center
06:43PM 38.8958 -109.2903 68° East 187 215 15,100  Level Denver Center
06:44PM 38.9161 -109.2269 64° Northeast 187 215 15,100  Level Denver Center
06:45PM 38.9361 -109.1744 70° East 187 215 15,100  Level Denver Center
06:46PM 38.9542 -109.1111 64° Northeast 187 215 15,100  Level Denver Center
06:47PM 38.9786 -109.0453 70° East 187 215 15,100  Level Denver Center
06:48PM 38.9967 -108.9817 67° East 187 215 15,100  Level Denver Center
06:49PM 39.0147 -108.9264 63° Northeast 187 215 15,100  Level Denver Center
06:50PM 39.0411 -108.8603 70° East 187 215 15,100  Level Denver Center
06:51PM 39.0592 -108.7969 69° East 187 215 15,100  Level Denver Center
06:52PM 39.0769 -108.7358 76° East 187 215 15,100  Level Denver Center
06:53PM 39.0886 -108.6747 80° East 187 215 15,100  Level Denver Center
06:54PM 39.0983 -108.6028 73° East 187 215 15,100  Level Denver Center
06:55PM 39.1142 -108.5364 76° East 187 215 15,100  Level Denver Center
06:56PM 39.1256 -108.4778 72° East 182 209 15,100  Level Denver Center
06:57PM 39.1414 -108.4142 78° East 182 209 15,100  Level Denver Center
06:58PM 39.1528 -108.3447 77° East 182 209 15,100  Level Denver Center
06:59PM 39.1644 -108.2808 76° East 182 209 15,100  Level Denver Center
07:00PM 39.1756 -108.2222 75° East 182 209 15,100  Level Denver Center
07:01PM 39.1892 -108.1583 76° East 182 209 15,100  Level Denver Center
07:02PM 39.2028 -108.0861 75° East 182 209 15,100  Level Denver Center
07:03PM 39.2161 -108.0222 71° East 182 209 15,100  Level Denver Center
07:04PM 39.2314 -107.9661 102° East 182 209 15,100  Level Denver Center
07:05PM 39.2197 -107.8936 114° Southeast 182 209 15,100  Level Denver Center
07:06PM 39.1978 -107.8289 113° Southeast 189 217 15,100  Level Denver Center
07:07PM 39.1775 -107.7669 110° East 195 224 15,100  Level Denver Center
07:08PM 39.1617 -107.7103 112° Southeast 195 224 15,100  Level Denver Center
07:09PM 39.1394 -107.6378 112° Southeast 195 224 15,100  Level Denver Center
07:10PM 39.1192 -107.5731 114° Southeast 195 224 15,100  Level Denver Center
07:11PM 39.0969 -107.5086 112° Southeast 195 224 15,100  Level Denver Center
07:12PM 39.0786 -107.4494 111° Southeast 195 224 15,100 300 Level Denver Center
07:13PM 39.0583 -107.3822 112° Southeast 190 219 15,700 540 Climbing Denver Center
07:14PM 39.0381 -107.3178 115° Southeast 190 219 16,200 420 Climbing Denver Center
07:15PM 39.0156 -107.2561 95° East 190 219 16,600 240 Climbing Denver Center
07:16PM 39.0117 -107.1947 85° East 190 219 16,700  Climbing Denver Center
07:17PM 39.0164 -107.1225 83° East 190 219 16,600 -60 Descending Denver Center
07:18PM 39.0231 -107.0558 68° East 195 224 16,600  Level Denver Center
07:19PM 39.0419 -106.9944 73° East 195 224 16,600  Level Denver Center
07:20PM 39.0569 -106.9303 76° East 188 216 16,600  Level Denver Center
07:21PM 39.0697 -106.8664 74° East 183 211 16,600 -180 Level Denver Center
07:22PM 39.0844 -106.8022 74° East 183 211 16,300 -180 Descending Denver Center
07:23PM 39.0992 -106.7381 68° East 183 211 16,300  Level Denver Center
07:24PM 39.1181 -106.6767 69° East 183 211 16,300  Level Denver Center
07:25PM 39.1369 -106.6125 67° East 183 211 16,300  Level Denver Center
07:26PM 39.1578 -106.5481 69° East 188 216 16,300  Level Denver Center
07:27PM 39.1767 -106.4839 69° East 188 216 16,300  Level Denver Center
07:28PM 39.1953 -106.4222 70° East 188 216 16,400  Climbing Denver Center
07:29PM 39.2142 -106.3553 67° East 188 216 16,300 -60 Descending Denver Center
07:30PM 39.2350 -106.2908 77° East 188 216 16,300  Level Denver Center
07:31PM 39.2472 -106.2211 81° East 188 216 16,300 -60 Level Denver Center
07:32PM 39.2556 -106.1514 80° East 188 216 16,200  Descending Denver Center
07:33PM 39.2636 -106.0897 79° East 183 211 16,300  Climbing Denver Center
07:34PM 39.2739 -106.0225 74° East 183 211 16,300  Level Denver Center
07:35PM 39.2903 -105.9475 77° East 201 231 16,300 -60 Level Denver Center
07:36PM 39.3044 -105.8694 81° East 207 238 16,200 -300 Descending Denver Center
07:37PM 39.3122 -105.8050 75° East 207 238 15,700 -840 Descending Denver Center
07:38PM 39.3244 -105.7458 North 207 238 14,600 -540 Descending Denver Center
07:39PM 39.3494 -105.7456 233° Southwest 207 238 14,700 -60 Climbing Denver Center
07:40PM 39.3308 -105.7781 164° South 47 54 14,500 -180 Descending Denver Center
07:41PM 39.2828 -105.7597 150° Southeast 120 138 14,400 600 Descending Denver Center
07:42PM 39.2431 -105.7306 103° East 157 181 15,800 720 Climbing Denver Center
07:43PM 39.2322 -105.6717 88° East 163 188 15,900 -120 Climbing Denver Center
07:44PM 39.2339 -105.6128 70° East 168 193 15,600 180 Descending Denver Center
07:45PM 39.2481 -105.5617 53° Northeast 154 177 16,300 420 Climbing Denver Center
07:46PM 39.2750 -105.5156 39° Northeast 154 177 16,500  Climbing Denver Center
07:47PM 39.3119 -105.4775 33° Northeast 160 184 16,400 -120 Descending Denver Center
07:48PM 39.3472 -105.4475 40° Northeast 165 190 16,300 -300 Descending Denver Center
07:49PM 39.3844 -105.4067 41° Northeast 172 198 15,800 -1,020 Descending Denver Center
07:50PM 39.4500 -105.3333 21° North 162 186 13,700 -1,140 Descending Denver TRACON
07:51PM 39.4833 -105.3167 38° Northeast 150 173 12,800 -300 Descending Denver TRACON
07:52PM 39.5167 -105.2833 38° Northeast 139 160 13,100 120 Climbing Denver TRACON
07:53PM 39.5500 -105.2500 49° Northeast 166 191 13,100 -480 Level Denver TRACON
07:54PM 39.5833 -105.2000 57° Northeast 158 182 12,200 -840 Descending Denver TRACON
07:55PM 39.6000 -105.1667 49° Northeast 156 180 11,500 -960 Descending Denver TRACON
07:56PM 39.6333 -105.1167 21° North 160 184 10,300 -960 Descending Denver TRACON
07:57PM 39.6667 -105.1000 14° North 153 176 9,600 -780 Descending Denver TRACON
07:58PM 39.7167 -105.0833 21° North 145 167 8,900 -780 Descending Denver TRACON
07:59PM 39.7500 -105.0667 21° North 151 174 8,200 -720 Descending Denver TRACON
08:00PM 39.7833 -105.0500 360° North 143 165 7,600 -480 Descending Denver TRACON
08:01PM 39.8167 -105.0500 360° North 114 131 7,300 -420 Descending Denver TRACON
08:02PM 39.8500 -105.0500 339° North 110 127 6,800 -600 Descending Denver TRACON
08:03PM 39.8833 -105.0667 323° Northwest 106 122 6,200 -420 Descending Denver TRACON
08:04PM 39.9000 -105.0833 323° Northwest 72 83 6,000 -240 Descending Denver TRACON